Edgewater, Florida
Current Conditions -  °F | °C
As of 11:53 AM on Monday 22 Dec 2014 (Local Time) from KDAB Reporting Station
Broken Clouds Broken Clouds  
Wind Chill: 74°   Ceiling: 25000
Heat Index: 74°   Visibility: 10mi
Dew Point: 65°   Wind: 7mph
Humidity: 73%   Direction: 180°S
Pressure: 29.99"   Gusts: NA
Location:  28.99°N, 80.9°W
Report Text: KDAB 221653Z 18006KT 10SM FEW025 SCT070 BKN250 23/18 A2999 RMK AO2 SLP156 T02330183
Loading
Personal Weather Stations






























Interactive Weather Map New forecast layout! Learn more

10-Day Weather Forecast

Advertisements
Track Severe Weather on mobile